Archival Weather

Dallas-Fort Worth Intl

Dallas-Fort Worth, Texas (KDFW)

Report from: Thursday, September 21, 2023 6:53 AM CDT
Current time: Friday, February 23, 2024 1:13 PM CST

Current weather – Weather history – Daily summaries
Weather forecast

Temperature25.0°C (77.0°F)
Dew point20.6°C (69.1°F)
Winds 7 kts (3.6 m/s, 8.1 mph) South-Southeast (160°)
Visibility10 mi. (16.1 km)
Clouds Few clouds 15,000 ft. (4,572 m)
Ceiling: Broken clouds 25,000 ft. (7,620 m)
Altimeter29.95 in.Hg (1014 mB)
Relative humidity77 %
Density altitude1,491 ft. (454 m)
Sea-level pressure101.3 kPa (1013 mB, 29.92 in.Hg)
Max temp last 6 hours27.8°C (82.0°F)
Min temp last 6 hours24.4°C (75.9°F)
Remarks Automated weather observing station with precipitation discriminator
Pressure rising more quickly
Flight conditions Visual Meteorological Conditions
Raw dataKDFW 211153Z 16007KT 10SM FEW150 BKN250 25/21 A2995 RMK AO2 SLP131 T02500206 10278 20244 53017
An error has occurred. This application may no longer respond until reloaded. Reload 🗙